Hauptseite
METAR-TAF:

METAR-TAF

Flughäfen :

Ankara Esenboğa, Türkei

Flughafen Ankara-Esenboğa

Breite: 40-07N, Länge: 032-59E, Höhe: 953 m

Beobachtung

Neuester Wetterbericht von vor 35 Minuten, um 11:20 UTC
Wind 3 kt aus unterschiedlichen Richtungen
Temperatur 10°C
Luftfeuchtigkeit 34%
Luftdruck 1019 hPa
Sichtweite 10 km oder mehr
Leicht bewölkt in der Höhe von 4000 ft

METAR: LTAC 281120Z VRB03KT 9999 FEW040 10/M05 Q1019 NOSIG

Zeit: 14:55 (11:55 UTC)

Prognose

Neuester Wetterbericht von vor 1 Stunde und 15 Minuten, um 10:40 UTC
Gültige Prognose vom 28 um 12 UTC bis 29 um 12 UTC
Wind 2 kt aus unterschiedlichen Richtungen
Sichtweite 10 km oder mehr
Leicht bewölkt in der Höhe von 4000 ft
Übergehend zu
vom 28 um 14 UTC bis 28 um 16 UTC
Sichtweite 10 km oder mehr
keine Wolken unter 1500 m und keine Kumulonimbus oder Gewitterwolken

TAF: LTAC 281040Z 2812/2912 VRB02KT 9999 FEW040 BECMG 2814/2816 CAVOK

Wetterbeobachtungen und Prognosen von mehr als 4000 Flughäfen (METAR und TAF Bericht).

Die verfügbaren Stationen werden durch gelbe und rote Markierungen auf der Karte dargestellt.

Führen Sie die Maus auf sie, um den Namen der Station zu sehen.

Darauf klicken, um die Beobachtung von Wetterbeobachtungen und Prognosen zu sehen.

Um die Karte zu ändern : klicken Sie auf den grünen Tasten mit einem schwarzen Kreuz Zum Vergrößern, auf den grünen Button mit einem Gedankenstrich zu verkleinern, oder auf die grünen Pfeile für benachbarte Karten.


METAR-TAF: